Time;durP1;ratioP1;P1;durP2;ratioP2;P2;SDS_P1;SDS_P2;PMS_P1;PMS_P2;Temp;Humidity;BMP_temperature;BMP_pressure;BME280_temperature;BME280_humidity;BME280_pressure;Samples;Min_cycle;Max_cycle;Signal;HPM_P1;HPM_P2
2024/02/28 00:01:33;;;;;;;14.90;9.20;;;;;;;9.38;75.47;96569.35;108913;1268;22825;-74
2024/02/28 00:04:04;;;;;;;16.40;9.40;;;;;;;9.26;75.43;96573.84;108943;1269;22513;-74
2024/02/28 00:06:36;;;;;;;11.40;8.70;;;;;;;9.18;75.81;96577.73;108939;1272;22551;-74
2024/02/28 00:09:09;;;;;;;12.80;8.00;;;;;;;9.18;76.14;96574.20;108953;1270;22528;-74
2024/02/28 00:11:50;;;;;;;13.70;8.60;;;;;;;9.20;76.41;96572.70;108935;1272;22685;-74
2024/02/28 00:14:27;;;;;;;13.00;8.10;;;;;;;9.24;76.57;96580.61;108935;1267;22664;-74
2024/02/28 00:16:59;;;;;;;13.30;8.10;;;;;;;9.29;76.80;96577.85;108853;1266;164083;-74
2024/02/28 00:19:35;;;;;;;14.00;8.60;;;;;;;9.32;76.57;96577.38;108980;1251;22533;-74
2024/02/28 00:22:09;;;;;;;14.00;8.90;;;;;;;9.29;76.75;96574.79;108905;1272;23401;-74
2024/02/28 00:24:43;;;;;;;16.30;9.80;;;;;;;9.31;76.94;96573.09;108975;1272;22530;-74
2024/02/28 00:27:17;;;;;;;15.30;9.90;;;;;;;9.34;77.04;96573.23;108913;1271;24314;-74
2024/02/28 00:29:49;;;;;;;15.10;9.20;;;;;;;9.35;76.97;96571.22;108893;1272;22569;-74
2024/02/28 00:32:25;;;;;;;12.40;6.40;;;;;;;9.34;76.96;96570.43;108940;1271;22490;-74
2024/02/28 00:34:57;;;;;;;14.70;7.90;;;;;;;9.26;77.12;96572.73;108905;1272;23187;-74
2024/02/28 00:37:29;;;;;;;8.90;5.80;;;;;;;9.22;77.45;96574.91;108957;1247;22566;-74
2024/02/28 00:40:04;;;;;;;11.50;6.40;;;;;;;9.20;77.64;96576.14;108916;1272;25489;-74
2024/02/28 00:42:37;;;;;;;11.80;6.70;;;;;;;9.20;77.97;96582.12;108945;1271;22537;-74
2024/02/28 00:45:14;;;;;;;10.80;7.20;;;;;;;9.20;78.15;96584.61;108937;1266;22515;-74
2024/02/28 00:47:49;;;;;;;9.70;6.40;;;;;;;9.21;78.07;96576.83;108948;1269;25397;-74
2024/02/28 00:50:22;;;;;;;10.20;5.80;;;;;;;9.21;78.34;96566.83;108913;1267;24244;-74
2024/02/28 00:53:01;;;;;;;7.40;5.20;;;;;;;9.28;78.72;96569.28;108958;1271;22572;-74
2024/02/28 00:55:38;;;;;;;9.00;6.10;;;;;;;9.35;78.76;96572.60;108997;1272;22637;-74
2024/02/28 00:58:11;;;;;;;11.70;6.80;;;;;;;9.35;78.71;96571.86;108953;1271;22591;-74
2024/02/28 01:00:46;;;;;;;10.40;7.40;;;;;;;9.29;78.68;96573.67;108925;1270;22524;-74
2024/02/28 01:03:22;;;;;;;10.70;6.60;;;;;;;9.25;78.88;96574.42;108906;1271;22511;-74
2024/02/28 01:06:00;;;;;;;9.40;5.90;;;;;;;9.29;78.91;96578.71;109015;1271;24376;-74
2024/02/28 01:08:35;;;;;;;11.30;6.00;;;;;;;9.32;78.95;96579.80;108815;1273;22622;-74
2024/02/28 01:11:09;;;;;;;8.70;6.10;;;;;;;9.33;79.02;96579.06;108810;1267;22520;-74
2024/02/28 01:13:42;;;;;;;10.90;6.20;;;;;;;9.31;79.24;96580.71;108801;1267;22539;-75
2024/02/28 01:16:14;;;;;;;10.00;6.40;;;;;;;9.30;79.35;96586.23;108817;1271;22540;-74
2024/02/28 01:18:44;;;;;;;10.40;7.40;;;;;;;9.32;79.52;96590.23;108844;1273;24190;-74
2024/02/28 01:21:19;;;;;;;12.50;7.30;;;;;;;9.33;79.67;96586.84;108783;1267;22503;-75
2024/02/28 01:23:55;;;;;;;12.20;7.20;;;;;;;9.31;79.59;96585.37;108842;1267;22523;-74
2024/02/28 01:26:28;;;;;;;12.10;6.80;;;;;;;9.33;79.77;96587.52;108825;1270;23306;-75
2024/02/28 01:29:00;;;;;;;13.50;7.80;;;;;;;9.36;79.86;96588.77;108796;1273;22903;-74
2024/02/28 01:31:32;;;;;;;13.20;8.60;;;;;;;9.35;79.86;96585.62;108753;1273;25305;-75
2024/02/28 01:34:08;;;;;;;10.80;6.70;;;;;;;9.37;79.75;96588.19;108884;1273;23923;-74
2024/02/28 01:36:41;;;;;;;10.70;7.10;;;;;;;9.22;79.37;96589.04;108780;1273;22521;-74
2024/02/28 01:39:14;;;;;;;10.10;6.20;;;;;;;9.06;79.82;96583.33;108851;1273;22839;-75
2024/02/28 01:41:54;;;;;;;7.40;5.40;;;;;;;9.04;80.34;96587.72;108768;1267;22526;-74
2024/02/28 01:44:28;;;;;;;10.20;5.40;;;;;;;9.12;80.53;96591.08;108747;1267;25281;-74
2024/02/28 01:46:59;;;;;;;10.90;5.30;;;;;;;9.12;80.49;96594.73;108793;1273;22467;-74
2024/02/28 01:49:31;;;;;;;9.80;6.00;;;;;;;9.07;80.73;96591.41;108834;1273;22545;-74
2024/02/28 01:52:05;;;;;;;8.00;5.30;;;;;;;9.16;80.98;96589.64;108822;1273;22605;-74
2024/02/28 01:54:37;;;;;;;9.60;5.50;;;;;;;9.25;80.91;96588.55;108842;1273;22942;-74
2024/02/28 01:57:09;;;;;;;9.20;5.60;;;;;;;9.22;80.87;96584.59;108740;1263;22664;-74
2024/02/28 01:59:40;;;;;;;8.60;5.00;;;;;;;9.26;80.90;96578.02;108799;1273;22562;-74
2024/02/28 02:02:12;;;;;;;11.10;6.20;;;;;;;9.33;80.97;96579.21;108788;1267;22515;-74
2024/02/28 02:04:45;;;;;;;10.10;6.70;;;;;;;9.27;80.97;96583.31;108750;1267;23880;-74
2024/02/28 02:07:19;;;;;;;12.00;7.60;;;;;;;9.14;80.96;96586.52;108864;1266;22482;-74
2024/02/28 02:09:56;;;;;;;13.20;7.90;;;;;;;9.07;81.50;96584.80;108913;1271;23934;-74
2024/02/28 02:12:32;;;;;;;10.20;6.60;;;;;;;9.09;81.67;96585.37;108996;1269;24321;-75
2024/02/28 02:15:10;;;;;;;10.60;7.10;;;;;;;9.14;81.62;96588.74;108959;1271;24018;-74
2024/02/28 02:17:41;;;;;;;13.30;7.20;;;;;;;9.15;81.41;96589.27;108911;1271;22574;-74
2024/02/28 02:20:20;;;;;;;10.10;6.50;;;;;;;9.16;81.38;96591.30;108927;1271;22574;-74
2024/02/28 02:22:51;;;;;;;9.00;5.40;;;;;;;9.15;81.53;96590.45;108902;1267;22527;-74
2024/02/28 02:25:25;;;;;;;9.90;5.80;;;;;;;9.17;81.74;96588.48;108960;1271;22524;-74
2024/02/28 02:27:59;;;;;;;8.70;6.00;;;;;;;9.18;81.87;96589.90;108927;1265;22517;-74
2024/02/28 02:30:33;;;;;;;8.80;6.50;;;;;;;9.18;81.84;96581.70;108937;1271;22590;-74
2024/02/28 02:33:04;;;;;;;11.10;6.30;;;;;;;9.19;81.85;96579.70;108945;1266;22561;-74
2024/02/28 02:35:40;;;;;;;9.00;5.70;;;;;;;9.23;81.99;96582.10;108906;1271;24408;-74
2024/02/28 02:38:13;;;;;;;10.00;6.70;;;;;;;9.25;81.98;96579.82;108937;1268;23747;-75
2024/02/28 02:40:46;;;;;;;10.40;7.20;;;;;;;9.26;81.98;96574.63;108930;1271;22559;-74
2024/02/28 02:43:17;;;;;;;11.60;7.90;;;;;;;9.27;81.83;96574.25;108945;1271;24209;-74
2024/02/28 02:45:48;;;;;;;11.10;6.40;;;;;;;9.33;81.91;96574.30;108942;1270;22503;-74
2024/02/28 02:48:20;;;;;;;11.50;6.60;;;;;;;9.36;82.00;96580.73;108955;1265;24040;-74
2024/02/28 02:50:51;;;;;;;11.10;7.20;;;;;;;9.39;82.00;96576.91;108939;1271;25287;-74
2024/02/28 02:53:24;;;;;;;14.50;8.70;;;;;;;9.37;81.85;96576.02;108903;1271;22660;-74
2024/02/28 02:55:57;;;;;;;11.60;7.00;;;;;;;9.36;81.71;96581.89;108967;1271;22599;-74
2024/02/28 02:58:31;;;;;;;10.30;6.60;;;;;;;9.36;81.60;96582.38;108927;1271;25256;-74
2024/02/28 03:01:02;;;;;;;12.00;7.40;;;;;;;9.39;81.49;96581.88;108958;1271;22517;-75
2024/02/28 03:03:37;;;;;;;10.60;6.90;;;;;;;9.39;81.41;96584.48;108979;1265;25228;-74
2024/02/28 03:06:11;;;;;;;14.10;7.50;;;;;;;9.41;81.23;96588.85;109010;1264;23975;-74
2024/02/28 03:08:49;;;;;;;10.00;6.60;;;;;;;9.40;81.12;96584.57;108996;1272;22527;-75
2024/02/28 03:11:22;;;;;;;11.60;7.50;;;;;;;9.36;81.11;96589.84;108915;1272;24369;-74
2024/02/28 03:13:56;;;;;;;10.10;5.90;;;;;;;9.32;81.12;96590.49;108962;1267;25248;-74
2024/02/28 03:16:27;;;;;;;8.80;5.80;;;;;;;9.35;81.06;96589.38;108985;1264;22703;-74
2024/02/28 03:19:01;;;;;;;11.90;6.10;;;;;;;9.39;81.03;96586.43;109006;1271;23683;-74
2024/02/28 03:21:34;;;;;;;11.40;6.50;;;;;;;9.41;80.93;96586.48;108960;1271;24225;-74
2024/02/28 03:24:10;;;;;;;10.40;6.70;;;;;;;9.41;80.78;96583.73;108957;1271;22528;-74
2024/02/28 03:26:46;;;;;;;9.80;5.90;;;;;;;9.45;80.67;96586.80;108974;1270;22722;-74
2024/02/28 03:29:20;;;;;;;11.20;6.30;;;;;;;9.55;80.50;96583.79;108972;1266;23494;-74
2024/02/28 03:31:51;;;;;;;14.60;6.60;;;;;;;9.65;80.28;96590.45;108920;1267;24186;-74
2024/02/28 03:34:26;;;;;;;9.70;6.10;;;;;;;9.69;80.01;96587.36;108988;1265;22546;-74
2024/02/28 03:36:59;;;;;;;8.80;6.00;;;;;;;9.70;79.79;96588.84;108963;1265;22528;-74
2024/02/28 03:39:31;;;;;;;11.80;7.20;;;;;;;9.73;79.54;96592.23;108942;1271;24277;-74
2024/02/28 03:42:02;;;;;;;16.50;8.70;;;;;;;9.73;79.41;96590.32;108900;1271;22527;-74
2024/02/28 03:44:33;;;;;;;13.40;8.30;;;;;;;9.70;79.18;96592.17;108987;1270;22905;-74
2024/02/28 03:47:07;;;;;;;11.50;7.70;;;;;;;9.66;79.00;96593.36;108909;1271;22520;-74
2024/02/28 03:49:41;;;;;;;11.60;6.50;;;;;;;9.58;78.94;96591.77;108955;1271;25428;-74
2024/02/28 03:52:13;;;;;;;11.20;7.00;;;;;;;9.47;79.08;96595.73;109034;1271;22524;-74
2024/02/28 03:54:48;;;;;;;11.90;6.80;;;;;;;9.41;79.12;96589.60;108967;1265;23237;-74
2024/02/28 03:57:22;;;;;;;12.10;7.30;;;;;;;9.41;79.25;96588.64;109043;1268;22517;-74
2024/02/28 03:59:54;;;;;;;12.40;7.20;;;;;;;9.39;79.35;96590.66;108960;1265;23320;-74
2024/02/28 04:02:30;;;;;;;11.90;6.20;;;;;;;9.39;79.38;96591.83;108987;1265;22538;-74
2024/02/28 04:05:08;;;;;;;8.60;4.80;;;;;;;9.40;79.21;96588.39;108992;1271;22511;-74
2024/02/28 04:07:47;;;;;;;10.10;5.50;;;;;;;9.30;79.12;96594.73;109007;1266;24180;-74
2024/02/28 04:10:21;;;;;;;10.50;5.00;;;;;;;9.14;79.31;96596.20;108982;1271;22689;-74
2024/02/28 04:12:56;;;;;;;21.90;8.70;;;;;;;9.05;79.61;96598.14;109004;1266;22529;-74
2024/02/28 04:15:28;;;;;;;19.70;9.00;;;;;;;9.02;79.88;96599.42;109000;1271;22539;-74
2024/02/28 04:17:59;;;;;;;17.90;8.60;;;;;;;9.03;80.04;96598.41;109031;1271;25567;-75
2024/02/28 04:20:30;;;;;;;16.70;8.10;;;;;;;9.07;80.04;96597.77;108948;1271;23300;-74
2024/02/28 04:23:02;;;;;;;17.90;7.60;;;;;;;9.03;79.84;96602.01;109025;1271;23860;-74
2024/02/28 04:25:35;;;;;;;13.60;6.20;;;;;;;9.01;79.97;96608.92;108978;1271;22543;-74
2024/02/28 04:28:09;;;;;;;11.20;6.40;;;;;;;9.04;80.05;96611.58;108941;1271;23219;-74
2024/02/28 04:30:40;;;;;;;13.20;6.50;;;;;;;9.04;79.99;96612.42;108974;1253;22517;-74
2024/02/28 04:33:14;;;;;;;9.60;6.10;;;;;;;9.03;79.93;96615.07;108964;1266;23200;-74
2024/02/28 04:35:53;;;;;;;9.50;5.90;;;;;;;9.02;80.13;96616.08;108981;1271;25327;-75
2024/02/28 04:38:25;;;;;;;;;;;;;;;9.01;80.08;96617.91;109009;1271;23828;-74
2024/02/28 04:41:01;;;;;;;12.50;8.10;;;;;;;8.99;80.34;96616.80;108947;1271;23882;-75
2024/02/28 04:43:35;;;;;;;11.20;7.10;;;;;;;8.95;80.32;96616.82;109013;1265;22534;-74
2024/02/28 04:46:06;;;;;;;11.50;6.70;;;;;;;8.88;80.29;96615.61;108973;1271;22528;-74
2024/02/28 04:48:39;;;;;;;10.00;6.30;;;;;;;8.82;80.32;96612.87;108989;1271;24349;-74
2024/02/28 04:51:13;;;;;;;10.80;6.60;;;;;;;8.76;80.43;96609.34;108967;1271;22545;-74
2024/02/28 04:53:44;;;;;;;12.10;7.20;;;;;;;8.68;80.38;96614.31;108978;1271;25005;-74
2024/02/28 04:56:17;;;;;;;15.10;7.50;;;;;;;8.59;80.55;96613.95;109016;1265;22840;-74
2024/02/28 04:58:48;;;;;;;10.40;5.50;;;;;;;8.54;80.39;96612.52;108958;1271;22530;-74
2024/02/28 05:01:19;;;;;;;14.20;6.10;;;;;;;8.53;80.43;96610.25;108965;1271;24226;-74
2024/02/28 05:03:50;;;;;;;8.00;5.30;;;;;;;8.58;80.44;96613.04;108960;1265;22528;-74
2024/02/28 05:06:24;;;;;;;10.70;6.90;;;;;;;8.65;80.63;96615.80;108972;1271;22523;-74
2024/02/28 05:08:55;;;;;;;9.90;6.20;;;;;;;8.70;80.53;96620.23;108941;1264;22492;-74
2024/02/28 05:11:29;;;;;;;10.20;6.30;;;;;;;8.68;80.43;96624.40;108966;1271;22548;-74
2024/02/28 05:14:00;;;;;;;9.80;6.40;;;;;;;8.67;80.21;96623.72;108969;1271;22511;-74
2024/02/28 05:16:32;;;;;;;11.00;6.10;;;;;;;8.61;80.32;96625.90;108941;1265;22758;-75
2024/02/28 05:19:04;;;;;;;11.70;6.10;;;;;;;8.63;80.41;96632.02;108980;1271;24213;-75
2024/02/28 05:21:43;;;;;;;11.30;6.80;;;;;;;8.59;80.39;96634.55;109012;1254;22536;-75
2024/02/28 05:24:19;;;;;;;9.10;6.30;;;;;;;8.54;80.22;96632.44;108971;1271;22508;-74
2024/02/28 05:26:51;;;;;;;10.20;5.80;;;;;;;8.43;80.08;96632.80;108946;1265;22570;-74
2024/02/28 05:29:22;;;;;;;9.80;6.30;;;;;;;8.34;80.07;96636.02;108913;1265;25367;-74
2024/02/28 05:31:57;;;;;;;11.40;6.80;;;;;;;8.33;80.24;96636.48;108988;1268;23900;-74
2024/02/28 05:34:32;;;;;;;9.30;5.30;;;;;;;8.35;80.56;96642.25;109013;1271;22612;-74
2024/02/28 05:37:04;;;;;;;11.10;5.50;;;;;;;8.32;80.29;96644.09;108899;1271;22520;-74
2024/02/28 05:39:38;;;;;;;12.70;7.50;;;;;;;8.26;80.45;96647.86;108918;1268;22518;-74
2024/02/28 05:42:09;;;;;;;12.70;8.40;;;;;;;8.25;80.82;96652.89;108978;1271;23032;-74
2024/02/28 05:44:45;;;;;;;11.50;7.30;;;;;;;8.29;81.20;96652.62;108991;1268;22659;-74
2024/02/28 05:47:19;;;;;;;9.90;5.80;;;;;;;8.34;81.05;96655.04;108933;1271;22577;-74
2024/02/28 05:49:58;;;;;;;11.10;6.20;;;;;;;8.38;81.12;96661.70;108937;1271;22524;-74
2024/02/28 05:52:29;;;;;;;9.30;6.20;;;;;;;8.45;81.05;96662.36;108970;1271;25412;-74
2024/02/28 05:55:03;;;;;;;8.60;6.00;;;;;;;8.49;81.08;96667.64;108998;1265;22989;-74
2024/02/28 05:57:34;;;;;;;6.60;5.20;;;;;;;8.59;81.13;96672.30;108968;1271;22524;-74
2024/02/28 06:00:09;;;;;;;7.40;4.60;;;;;;;8.68;80.78;96674.98;108955;1271;22541;-75
2024/02/28 06:02:45;;;;;;;11.90;5.70;;;;;;;8.74;80.65;96677.34;108988;1265;23677;-74
2024/02/28 06:05:16;;;;;;;11.20;6.00;;;;;;;8.79;80.64;96675.05;108952;1271;22600;-75
2024/02/28 06:07:49;;;;;;;8.10;5.30;;;;;;;8.87;80.47;96673.73;108946;1271;22609;-75
2024/02/28 06:10:28;;;;;;;8.20;4.50;;;;;;;9.00;80.44;96676.15;108890;1271;22528;-75
2024/02/28 06:13:02;;;;;;;11.30;5.50;;;;;;;9.14;80.31;96676.82;108891;1272;23232;-74
2024/02/28 06:15:33;;;;;;;10.10;5.70;;;;;;;9.26;80.18;96678.33;108905;1267;23900;-74
2024/02/28 06:18:07;;;;;;;9.10;5.70;;;;;;;9.30;79.88;96679.77;108873;1272;22676;-75
2024/02/28 06:20:38;;;;;;;10.90;6.50;;;;;;;9.31;79.68;96685.52;108918;1272;22531;-74
2024/02/28 06:23:09;;;;;;;10.00;5.80;;;;;;;9.33;79.54;96686.52;108867;1270;22545;-75
2024/02/28 06:25:41;;;;;;;8.10;5.60;;;;;;;9.33;79.44;96687.91;108888;1268;22692;-75
2024/02/28 06:28:14;;;;;;;8.80;6.60;;;;;;;9.33;79.39;96687.11;108867;1265;22521;-75
2024/02/28 06:30:46;;;;;;;11.50;6.60;;;;;;;9.32;79.36;96691.30;108886;1261;25452;-75
2024/02/28 06:33:18;;;;;;;11.60;7.10;;;;;;;9.31;79.43;96697.28;108945;1265;22520;-74
2024/02/28 06:35:50;;;;;;;11.00;7.70;;;;;;;9.29;79.35;96699.17;108988;1265;22542;-75
2024/02/28 06:38:24;;;;;;;10.50;6.50;;;;;;;9.26;79.45;96700.27;108979;1271;22589;-73
2024/02/28 06:40:56;;;;;;;11.20;7.40;;;;;;;9.27;79.48;96703.19;108986;1272;24158;-73
2024/02/28 06:43:29;;;;;;;13.90;7.30;;;;;;;9.27;79.51;96703.23;108959;1272;23694;-74
2024/02/28 06:46:03;;;;;;;11.80;7.60;;;;;;;9.24;79.48;96705.42;108946;1271;22564;-73
2024/02/28 06:48:36;;;;;;;11.90;7.70;;;;;;;9.22;79.51;96702.20;108962;1265;23187;-73
2024/02/28 06:51:10;;;;;;;11.70;7.70;;;;;;;9.26;79.69;96703.09;108893;1267;25424;-74
2024/02/28 06:53:44;;;;;;;10.80;6.60;;;;;;;9.29;79.63;96707.48;108936;1271;22537;-73
2024/02/28 06:56:20;;;;;;;7.90;5.70;;;;;;;9.35;79.59;96710.54;108902;1272;22558;-74
2024/02/28 06:58:56;;;;;;;10.50;5.70;;;;;;;9.41;79.42;96710.10;108910;1265;23297;-73
2024/02/28 07:01:30;;;;;;;9.80;6.40;;;;;;;9.49;79.36;96714.54;108967;1271;22991;-73
2024/02/28 07:04:09;;;;;;;8.20;5.60;;;;;;;9.54;79.29;96715.20;108987;1265;22570;-73
2024/02/28 07:06:41;;;;;;;11.60;6.20;;;;;;;9.56;79.16;96715.45;108957;1271;23110;-73
2024/02/28 07:09:22;;;;;;;11.00;7.10;;;;;;;9.59;79.09;96715.95;109020;1248;22526;-73
2024/02/28 07:12:02;;;;;;;12.70;6.60;;;;;;;9.63;78.98;96715.93;108989;1271;22517;-74
2024/02/28 07:14:36;;;;;;;8.80;5.70;;;;;;;9.67;78.92;96717.83;108926;1265;25195;-74
2024/02/28 07:17:14;;;;;;;9.00;6.60;;;;;;;9.70;78.97;96717.65;108998;1271;22520;-74
2024/02/28 07:19:48;;;;;;;10.90;7.10;;;;;;;9.74;78.80;96714.59;108914;1268;24151;-73
2024/02/28 07:22:22;;;;;;;13.40;7.10;;;;;;;9.79;78.69;96715.77;108943;1271;25028;-74
2024/02/28 07:24:58;;;;;;;10.30;6.20;;;;;;;9.82;78.63;96712.73;108939;1268;23785;-74
2024/02/28 07:27:29;;;;;;;11.00;6.80;;;;;;;9.84;78.48;96710.23;108906;1263;22579;-74
2024/02/28 07:30:03;;;;;;;11.40;6.50;;;;;;;9.90;78.41;96716.16;108951;1267;22628;-73
2024/02/28 07:32:34;;;;;;;10.10;7.50;;;;;;;9.91;78.25;96720.87;109006;1268;22535;-73
2024/02/28 07:35:07;;;;;;;12.30;7.80;;;;;;;9.87;78.11;96724.13;108957;1271;24235;-73
2024/02/28 07:37:38;;;;;;;10.90;7.70;;;;;;;9.85;78.13;96722.46;108969;1268;23689;-74
2024/02/28 07:40:16;;;;;;;15.40;7.60;;;;;;;9.87;78.21;96722.17;108958;1268;25499;-73
2024/02/28 07:42:54;;;;;;;8.80;6.00;;;;;;;9.91;78.31;96720.87;109021;1268;23552;-74
2024/02/28 07:45:30;;;;;;;12.40;6.20;;;;;;;9.94;78.12;96718.67;108963;1265;25425;-74
2024/02/28 07:48:02;;;;;;;11.90;7.00;;;;;;;10.00;78.14;96724.48;108894;1261;22642;-73
2024/02/28 07:50:42;;;;;;;11.30;7.00;;;;;;;10.06;78.00;96725.58;108903;1269;23031;-74
2024/02/28 07:53:18;;;;;;;10.10;6.70;;;;;;;10.13;78.08;96724.06;108969;1266;22586;-73
2024/02/28 07:55:50;;;;;;;10.90;7.30;;;;;;;10.17;77.86;96724.05;108945;1271;22534;-73
2024/02/28 07:58:21;;;;;;;12.60;6.90;;;;;;;10.21;77.71;96725.00;108926;1271;22519;-73
2024/02/28 08:00:58;;;;;;;12.90;7.10;;;;;;;10.23;77.62;96723.73;108929;1271;22525;-73
2024/02/28 08:03:31;;;;;;;10.40;7.00;;;;;;;10.27;77.54;96732.08;108889;1268;22618;-74
2024/02/28 08:06:08;;;;;;;10.80;6.10;;;;;;;10.30;77.56;96731.13;108869;1265;22521;-74
2024/02/28 08:08:39;;;;;;;9.90;6.40;;;;;;;10.37;77.61;96734.67;108925;1267;22543;-73
2024/02/28 08:11:11;;;;;;;9.00;6.40;;;;;;;10.40;77.39;96734.17;108843;1270;22517;-73
2024/02/28 08:13:43;;;;;;;11.00;6.50;;;;;;;10.43;77.27;96734.97;108901;1273;22707;-74
2024/02/28 08:16:14;;;;;;;11.40;6.50;;;;;;;10.47;77.05;96735.10;108835;1272;22488;-73
2024/02/28 08:18:53;;;;;;;10.30;6.40;;;;;;;10.51;76.86;96737.61;108879;1266;23914;-74
2024/02/28 08:21:27;;;;;;;9.90;5.90;;;;;;;10.56;76.71;96734.05;108776;1273;22506;-73
2024/02/28 08:24:04;;;;;;;8.20;5.30;;;;;;;10.61;76.54;96732.95;108816;1272;24213;-73
2024/02/28 08:26:41;;;;;;;9.30;5.40;;;;;;;10.66;76.31;96731.64;108844;1270;22523;-73
2024/02/28 08:29:15;;;;;;;10.40;6.30;;;;;;;10.71;76.05;96733.85;108840;1268;22487;-74
2024/02/28 08:31:57;;;;;;;10.30;6.30;;;;;;;10.78;75.87;96738.46;108821;1273;22520;-74
2024/02/28 08:34:31;;;;;;;8.90;5.10;;;;;;;10.81;75.78;96739.01;108888;1267;22520;-73
2024/02/28 08:37:04;;;;;;;10.30;6.70;;;;;;;10.87;75.70;96743.55;108901;1273;25269;-74
2024/02/28 08:39:38;;;;;;;9.90;6.20;;;;;;;10.92;75.70;96743.02;108786;1268;22527;-73
2024/02/28 08:42:12;;;;;;;11.90;6.90;;;;;;;10.98;75.78;96736.35;108955;1271;22572;-73
2024/02/28 08:44:47;;;;;;;11.30;6.90;;;;;;;11.01;75.49;96733.10;109037;1271;22517;-73
2024/02/28 08:47:19;;;;;;;11.50;6.90;;;;;;;11.05;75.51;96734.13;108954;1266;22835;-74
2024/02/28 08:49:57;;;;;;;13.00;7.60;;;;;;;11.05;75.56;96735.91;108875;1266;22683;-74
2024/02/28 08:52:30;;;;;;;10.70;7.10;;;;;;;11.03;75.49;96738.59;109142;1271;22517;-74
2024/02/28 08:55:02;;;;;;;11.70;8.10;;;;;;;10.99;75.43;96735.24;108835;1265;23423;-74
2024/02/28 08:57:39;;;;;;;15.10;10.00;;;;;;;10.93;75.26;96736.60;108962;1271;22537;-74
2024/02/28 09:00:17;;;;;;;13.40;10.00;;;;;;;10.83;75.29;96737.30;108900;1265;22516;-74
2024/02/28 09:02:49;;;;;;;16.20;10.50;;;;;;;10.79;75.40;96740.47;108847;1266;22552;-74
2024/02/28 09:05:20;;;;;;;12.20;8.40;;;;;;;10.72;75.51;96743.02;108777;1271;22523;-74
2024/02/28 09:07:54;;;;;;;13.90;8.10;;;;;;;10.65;75.50;96742.94;108840;1268;22557;-74
2024/02/28 09:10:27;;;;;;;13.20;8.30;;;;;;;10.62;75.63;96744.52;108890;1271;22822;-74
2024/02/28 09:13:00;;;;;;;11.70;8.40;;;;;;;10.59;75.75;96739.61;108698;1270;24204;-74
2024/02/28 09:15:34;;;;;;;13.30;7.70;;;;;;;10.60;76.00;96744.15;109003;1248;22527;-74
2024/02/28 09:18:08;;;;;;;11.30;7.80;;;;;;;10.60;76.17;96742.82;108948;1271;22507;-74
2024/02/28 09:20:42;;;;;;;10.20;6.60;;;;;;;10.59;76.29;96741.92;108934;1265;22524;-74
2024/02/28 09:23:16;;;;;;;12.30;7.70;;;;;;;10.62;76.29;96746.09;109009;1266;22557;-74
2024/02/28 09:25:48;;;;;;;10.40;7.80;;;;;;;10.67;76.20;96746.64;108934;1248;22520;-74
2024/02/28 09:28:20;;;;;;;11.10;7.00;;;;;;;10.75;76.27;96747.82;108899;1271;22520;-74
2024/02/28 09:30:58;;;;;;;11.80;7.00;;;;;;;10.80;76.28;96752.13;108935;1271;23341;-74
2024/02/28 09:33:29;;;;;;;10.00;6.10;;;;;;;10.85;76.17;96755.45;108888;1271;22517;-74
2024/02/28 09:36:09;;;;;;;11.60;6.20;;;;;;;10.91;76.17;96750.42;108939;1271;24428;-74
2024/02/28 09:38:46;;;;;;;9.20;5.80;;;;;;;11.01;76.02;96748.06;108977;1271;23157;-74
2024/02/28 09:41:19;;;;;;;8.80;5.70;;;;;;;11.11;75.85;96747.34;108898;1271;25424;-74
2024/02/28 09:43:51;;;;;;;10.10;6.70;;;;;;;11.21;75.78;96748.20;108951;1271;22523;-74
2024/02/28 09:46:24;;;;;;;10.90;6.60;;;;;;;11.26;75.65;96749.91;108923;1271;24221;-74
2024/02/28 09:48:56;;;;;;;10.80;7.00;;;;;;;11.23;75.49;96750.63;108987;1271;23452;-74
2024/02/28 09:51:34;;;;;;;10.10;6.90;;;;;;;11.16;75.33;96754.04;108926;1271;22531;-74
2024/02/28 09:54:08;;;;;;;10.50;6.40;;;;;;;11.13;75.40;96751.90;108987;1271;22528;-74
2024/02/28 09:56:41;;;;;;;9.70;6.20;;;;;;;11.18;75.52;96757.54;108963;1271;22528;-74
2024/02/28 09:59:16;;;;;;;10.30;6.60;;;;;;;11.25;75.40;96762.07;108939;1271;22575;-74
2024/02/28 10:01:57;;;;;;;9.40;7.00;;;;;;;11.31;75.37;96760.29;109003;1271;22609;-74
2024/02/28 10:04:33;;;;;;;11.00;6.50;;;;;;;11.39;75.11;96763.98;108966;1271;22519;-74
2024/02/28 10:07:17;;;;;;;10.60;6.60;;;;;;;11.39;74.80;96768.11;108979;1271;24189;-74
2024/02/28 10:09:48;;;;;;;9.90;6.40;;;;;;;11.41;74.58;96767.74;108989;1265;22908;-74
2024/02/28 10:12:25;;;;;;;12.20;7.00;;;;;;;11.41;74.34;96763.92;109008;1271;23747;-74
2024/02/28 10:15:00;;;;;;;8.80;5.70;;;;;;;11.40;74.40;96765.45;108993;1266;25359;-74
2024/02/28 10:17:36;;;;;;;10.90;7.40;;;;;;;11.44;74.36;96766.55;109018;1271;22676;-74
2024/02/28 10:20:19;;;;;;;11.10;6.70;;;;;;;11.46;74.27;96773.33;108971;1271;22839;-74
2024/02/28 10:22:53;;;;;;;9.50;7.00;;;;;;;11.45;74.24;96772.85;108979;1271;22623;-74
2024/02/28 10:25:26;;;;;;;12.30;7.40;;;;;;;11.49;74.37;96777.90;108985;1271;22489;-74
2024/02/28 10:28:10;;;;;;;10.30;6.30;;;;;;;11.53;74.50;96776.96;109021;1271;24352;-74
2024/02/28 10:30:44;;;;;;;13.40;7.60;;;;;;;11.52;74.50;96775.42;108943;1271;22579;-74
2024/02/28 10:33:19;;;;;;;11.40;7.10;;;;;;;11.54;74.78;96776.59;109001;1268;22568;-74
2024/02/28 10:35:53;;;;;;;10.60;7.20;;;;;;;11.54;74.69;96776.27;108961;1250;22550;-74
2024/02/28 10:38:29;;;;;;;9.90;6.00;;;;;;;11.51;74.64;96778.67;108930;1268;22523;-74
2024/02/28 10:41:02;;;;;;;10.70;6.90;;;;;;;11.49;74.59;96776.68;108946;1271;25247;-74
2024/02/28 10:43:39;;;;;;;8.50;6.20;;;;;;;11.52;74.61;96774.85;108910;1267;22532;-74
2024/02/28 10:46:21;;;;;;;11.70;7.30;;;;;;;11.57;74.64;96770.77;108952;1271;22520;-74
2024/02/28 10:48:57;;;;;;;12.00;8.20;;;;;;;11.60;74.36;96775.20;108915;1271;22520;-74
2024/02/28 10:51:31;;;;;;;12.30;8.50;;;;;;;11.63;74.23;96778.79;108948;1271;22540;-74
2024/02/28 10:54:13;;;;;;;13.10;8.30;;;;;;;11.59;74.00;96777.77;108907;1271;23692;-74
2024/02/28 10:56:45;;;;;;;9.90;6.80;;;;;;;11.62;74.08;96778.11;108972;1271;24212;-74
2024/02/28 10:59:29;;;;;;;11.70;7.80;;;;;;;11.65;73.74;96776.38;108934;1271;22538;-74
2024/02/28 11:02:03;;;;;;;10.70;8.00;;;;;;;11.63;73.59;96778.09;108968;1271;22526;-74
2024/02/28 11:04:36;;;;;;;11.70;7.60;;;;;;;11.63;73.50;96779.27;108956;1271;22528;-74
2024/02/28 11:07:11;;;;;;;12.60;6.60;;;;;;;11.64;73.34;96779.84;108942;1271;23856;-74
2024/02/28 11:09:54;;;;;;;12.80;7.10;;;;;;;11.63;73.10;96777.94;108930;1270;22511;-74
2024/02/28 11:12:29;;;;;;;16.40;9.40;;;;;;;11.58;73.06;96782.66;108965;1268;22550;-74
2024/02/28 11:15:06;;;;;;;15.40;8.60;;;;;;;11.57;73.35;96780.33;108956;1269;22518;-74
2024/02/28 11:17:40;;;;;;;11.80;6.90;;;;;;;11.60;73.20;96779.08;108974;1271;22539;-74
2024/02/28 11:20:23;;;;;;;11.40;7.40;;;;;;;11.64;73.08;96780.84;108926;1271;23741;-74
2024/02/28 11:23:02;;;;;;;11.20;7.00;;;;;;;11.72;73.10;96780.98;108932;1272;22544;-74
2024/02/28 11:25:34;;;;;;;12.90;7.60;;;;;;;11.80;72.97;96779.23;108940;1271;22489;-74
2024/02/28 11:28:10;;;;;;;11.00;8.00;;;;;;;11.84;72.84;96775.59;108918;1266;22489;-74
2024/02/28 11:30:48;;;;;;;11.30;7.90;;;;;;;11.92;72.81;96777.63;108905;1271;22664;-74
2024/02/28 11:33:22;;;;;;;12.90;7.30;;;;;;;11.96;72.73;96778.48;108906;1272;24222;-74
2024/02/28 11:35:58;;;;;;;12.10;8.10;;;;;;;11.97;72.48;96779.98;108950;1271;22639;-74
2024/02/28 11:38:30;;;;;;;11.60;8.30;;;;;;;11.99;72.36;96780.69;108914;1266;22699;-74
2024/02/28 11:41:04;;;;;;;15.70;9.70;;;;;;;12.02;72.32;96778.80;108908;1272;24326;-74
2024/02/28 11:43:36;;;;;;;14.60;9.50;;;;;;;12.04;72.20;96780.77;108890;1271;23295;-74
2024/02/28 11:46:12;;;;;;;11.60;8.40;;;;;;;12.08;72.06;96778.40;108901;1271;22527;-74
2024/02/28 11:48:46;;;;;;;13.30;8.60;;;;;;;12.12;72.12;96776.45;108920;1265;25451;-74
2024/02/28 11:51:20;;;;;;;15.20;10.20;;;;;;;12.16;72.05;96777.63;108903;1271;22534;-74
2024/02/28 11:53:53;;;;;;;13.00;8.80;;;;;;;12.23;72.15;96779.08;108932;1265;22527;-74
2024/02/28 11:56:25;;;;;;;12.80;8.90;;;;;;;12.32;72.18;96780.94;108973;1271;22550;-74